createdAt,value
2018-02-16T00:01:11.740Z,95503
2018-02-16T00:03:39.836Z,95501
2018-02-16T00:06:07.940Z,95491
2018-02-16T00:08:36.131Z,95498
2018-02-16T00:11:04.350Z,95498
2018-02-16T00:13:32.475Z,95495
2018-02-16T00:16:00.596Z,95495
2018-02-16T00:18:29.184Z,95489
2018-02-16T00:20:57.321Z,95498
2018-02-16T00:23:25.572Z,95496
2018-02-16T00:25:53.854Z,95499
2018-02-16T00:28:22.091Z,95500
2018-02-16T00:30:50.286Z,95504
2018-02-16T00:33:18.423Z,95502
2018-02-16T00:35:46.591Z,95511
2018-02-16T00:38:15.522Z,95505
2018-02-16T00:40:43.659Z,95512
2018-02-16T00:43:11.781Z,95519
2018-02-16T00:45:39.872Z,95518
2018-02-16T00:48:08.009Z,95512
2018-02-16T00:50:36.153Z,95524
2018-02-16T00:53:04.269Z,95522
2018-02-16T00:55:32.553Z,95529
2018-02-16T00:58:00.655Z,95519
2018-02-16T01:00:28.779Z,95537
2018-02-16T01:02:56.869Z,95540
2018-02-16T01:05:24.964Z,95542
2018-02-16T01:07:53.123Z,95542
2018-02-16T01:10:21.271Z,95536
2018-02-16T01:12:49.459Z,95537
2018-02-16T01:15:17.548Z,95538
2018-02-16T01:17:45.720Z,95548
2018-02-16T01:20:13.844Z,95549
2018-02-16T01:22:41.958Z,95544
2018-02-16T01:25:10.062Z,95546
2018-02-16T01:27:38.998Z,95538
2018-02-16T01:30:07.132Z,95540
2018-02-16T01:32:35.232Z,95546
2018-02-16T01:35:03.846Z,95538
2018-02-16T01:37:31.947Z,95549
2018-02-16T01:40:00.093Z,95547
2018-02-16T01:42:28.212Z,95549
2018-02-16T01:44:56.312Z,95537
2018-02-16T01:47:24.416Z,95545
2018-02-16T01:50:05.218Z,95542
2018-02-16T01:52:33.358Z,95543
2018-02-16T01:55:01.472Z,95541
2018-02-16T01:57:29.578Z,95546
2018-02-16T01:59:57.676Z,95553
2018-02-16T02:02:25.811Z,95554
2018-02-16T02:04:53.931Z,95568
2018-02-16T02:07:22.021Z,95572
2018-02-16T02:09:50.130Z,95563
2018-02-16T02:12:18.257Z,95554
2018-02-16T02:14:46.449Z,95554
2018-02-16T02:17:14.607Z,95547
2018-02-16T02:19:43.389Z,95557
2018-02-16T02:22:11.491Z,95571
2018-02-16T02:24:39.617Z,95569
2018-02-16T02:27:07.775Z,95574
2018-02-16T02:29:35.873Z,95575
2018-02-16T02:32:04.004Z,95570
2018-02-16T02:34:32.121Z,95578
2018-02-16T02:37:00.232Z,95575
2018-02-16T02:39:28.352Z,95567
2018-02-16T02:41:56.538Z,95567
2018-02-16T02:44:24.658Z,95564
2018-02-16T02:46:52.766Z,95556
2018-02-16T02:49:20.910Z,95567
2018-02-16T02:51:49.172Z,95581
2018-02-16T02:54:17.280Z,95585
2018-02-16T02:56:45.426Z,95590
2018-02-16T02:59:13.571Z,95600
2018-02-16T03:01:42.454Z,95605
2018-02-16T03:04:10.557Z,95608
2018-02-16T03:06:39.457Z,95609
2018-02-16T03:09:07.616Z,95616
2018-02-16T03:11:35.768Z,95623
2018-02-16T03:14:04.664Z,95609
2018-02-16T03:16:32.764Z,95623
2018-02-16T03:19:00.971Z,95623
2018-02-16T03:21:29.085Z,95644
2018-02-16T03:23:57.207Z,95651
2018-02-16T03:26:25.309Z,95654
2018-02-16T03:28:54.075Z,95663
2018-02-16T03:31:22.173Z,95673
2018-02-16T03:33:50.289Z,95687
2018-02-16T03:36:21.107Z,95688
2018-02-16T03:38:49.217Z,95697
2018-02-16T03:41:17.319Z,95702
2018-02-16T03:43:45.423Z,95702
2018-02-16T03:46:13.559Z,95703
2018-02-16T03:48:41.767Z,95718
2018-02-16T03:51:09.954Z,95720
2018-02-16T03:53:38.049Z,95719
2018-02-16T03:56:06.487Z,95735
2018-02-16T03:58:34.607Z,95734
2018-02-16T04:01:11.551Z,95742
2018-02-16T04:03:48.638Z,95751
2018-02-16T04:06:23.748Z,95758
2018-02-16T04:08:52.120Z,95760
2018-02-16T04:11:20.272Z,95770
2018-02-16T04:13:49.669Z,95773
2018-02-16T04:16:17.902Z,95769
2018-02-16T04:18:46.120Z,95781
2018-02-16T04:21:14.376Z,95772
2018-02-16T04:23:42.618Z,95771
2018-02-16T04:26:10.774Z,95784
2018-02-16T04:28:38.876Z,95788
2018-02-16T04:31:07.258Z,95793
2018-02-16T04:33:35.384Z,95793
2018-02-16T04:36:03.562Z,95797
2018-02-16T04:38:31.658Z,95812
2018-02-16T04:41:00.540Z,95800
2018-02-16T04:43:28.685Z,95806
2018-02-16T04:45:56.790Z,95812
2018-02-16T04:48:24.911Z,95805
2018-02-16T04:50:53.020Z,95800
2018-02-16T04:53:21.904Z,95807
2018-02-16T04:55:50.015Z,95809
2018-02-16T04:58:18.135Z,95803
2018-02-16T05:00:46.255Z,95820
2018-02-16T05:03:14.361Z,95817
2018-02-16T05:05:42.497Z,95826
2018-02-16T05:08:10.633Z,95831
2018-02-16T05:10:38.741Z,95835
2018-02-16T05:13:06.845Z,95844
2018-02-16T05:15:34.967Z,95852
2018-02-16T05:18:03.840Z,95859
2018-02-16T05:20:31.937Z,95856
2018-02-16T05:23:00.810Z,95865
2018-02-16T05:25:29.800Z,95867
2018-02-16T05:27:58.026Z,95890
2018-02-16T05:30:26.238Z,95884
2018-02-16T05:32:54.460Z,95891
2018-02-16T05:35:22.565Z,95894
2018-02-16T05:37:50.688Z,95895
2018-02-16T05:40:19.590Z,95895
2018-02-16T05:42:47.694Z,95897
2018-02-16T05:45:15.812Z,95907
2018-02-16T05:47:43.968Z,95902
2018-02-16T05:50:12.105Z,95916
2018-02-16T05:52:40.252Z,95918
2018-02-16T05:55:08.386Z,95921
2018-02-16T05:57:36.502Z,95917
2018-02-16T06:00:05.386Z,95915
2018-02-16T06:02:33.488Z,95929
2018-02-16T06:05:01.609Z,95924
2018-02-16T06:07:29.726Z,95934
2018-02-16T06:09:57.832Z,95940
2018-02-16T06:12:25.964Z,95952
2018-02-16T06:14:54.073Z,95952
2018-02-16T06:17:22.189Z,95949
2018-02-16T06:19:50.361Z,95960
2018-02-16T06:22:18.500Z,95967
2018-02-16T06:24:46.737Z,95960
2018-02-16T06:27:14.968Z,95983
2018-02-16T06:29:43.149Z,95980
2018-02-16T06:32:11.239Z,95986
2018-02-16T06:34:39.347Z,95982
2018-02-16T06:37:07.458Z,95977
2018-02-16T06:39:35.573Z,95985
2018-02-16T06:42:03.665Z,95987
2018-02-16T06:44:31.753Z,95989
2018-02-16T06:46:59.931Z,95987
2018-02-16T06:49:28.036Z,95995
2018-02-16T06:51:56.155Z,96007
2018-02-16T06:54:24.267Z,96002
2018-02-16T06:56:52.389Z,96014
2018-02-16T06:59:20.508Z,96009
2018-02-16T07:01:48.632Z,96018
2018-02-16T07:04:16.748Z,96029
2018-02-16T07:06:44.832Z,96042
2018-02-16T07:09:13.187Z,96034
2018-02-16T07:11:41.292Z,96044
2018-02-16T07:14:10.210Z,96057
2018-02-16T07:16:38.321Z,96052
2018-02-16T07:19:06.422Z,96056
2018-02-16T07:21:34.518Z,96064
2018-02-16T07:24:02.668Z,96078
2018-02-16T07:26:30.768Z,96076
2018-02-16T07:28:58.888Z,96074
2018-02-16T07:31:27.041Z,96079
2018-02-16T07:33:55.144Z,96074
2018-02-16T07:36:23.261Z,96085
2018-02-16T07:38:51.382Z,96082
2018-02-16T07:41:19.506Z,96078
2018-02-16T07:43:47.611Z,96076
2018-02-16T07:46:15.723Z,96077
2018-02-16T07:48:44.583Z,96072
2018-02-16T07:51:12.682Z,96068
2018-02-16T07:53:41.655Z,96084
2018-02-16T07:56:09.765Z,96086
2018-02-16T07:58:37.883Z,96098
2018-02-16T08:01:05.981Z,96102
2018-02-16T08:03:34.092Z,96101
2018-02-16T08:06:02.225Z,96103
2018-02-16T08:08:30.328Z,96099
2018-02-16T08:10:58.459Z,96107
2018-02-16T08:13:26.547Z,96107
2018-02-16T08:15:54.708Z,96114
2018-02-16T08:18:22.792Z,96115
2018-02-16T08:20:50.893Z,96121
2018-02-16T08:23:18.992Z,96113
2018-02-16T08:25:47.126Z,96120
2018-02-16T08:28:15.204Z,96118
2018-02-16T08:30:43.309Z,96128
2018-02-16T08:33:11.393Z,96134
2018-02-16T08:35:40.282Z,96139
2018-02-16T08:38:08.378Z,96136
2018-02-16T08:40:36.571Z,96143
2018-02-16T08:43:05.538Z,96145
2018-02-16T08:45:33.687Z,96151
2018-02-16T08:48:01.787Z,96155
2018-02-16T08:50:29.876Z,96156
2018-02-16T08:52:57.988Z,96157
2018-02-16T08:55:26.084Z,96158
2018-02-16T08:57:54.179Z,96158
2018-02-16T09:00:22.299Z,96156
2018-02-16T09:02:50.425Z,96154
2018-02-16T09:05:18.547Z,96170
2018-02-16T09:07:46.657Z,96170
2018-02-16T09:10:14.770Z,96163
2018-02-16T09:12:42.871Z,96174
2018-02-16T09:15:10.963Z,96176
2018-02-16T09:17:39.085Z,96173
2018-02-16T09:20:08.609Z,96167
2018-02-16T09:22:36.703Z,96176
2018-02-16T09:25:04.884Z,96178
2018-02-16T09:27:33.053Z,96176
2018-02-16T09:30:01.182Z,96184
2018-02-16T09:32:29.265Z,96192
2018-02-16T09:34:57.489Z,96185
2018-02-16T09:37:26.684Z,96181
2018-02-16T09:39:55.169Z,96192
2018-02-16T09:42:24.039Z,96185
2018-02-16T09:44:52.128Z,96182
2018-02-16T09:47:20.248Z,96190
2018-02-16T09:49:48.334Z,96194
2018-02-16T09:52:16.448Z,96190
2018-02-16T09:54:44.544Z,96183
2018-02-16T09:57:12.628Z,96187
2018-02-16T09:59:40.741Z,96190
2018-02-16T10:02:08.838Z,96188
2018-02-16T10:04:36.928Z,96195
2018-02-16T10:07:05.019Z,96208
2018-02-16T10:09:33.140Z,96204
2018-02-16T10:12:01.495Z,96219
2018-02-16T10:14:29.632Z,96213
2018-02-16T10:16:57.777Z,96228
2018-02-16T10:19:25.867Z,96228
2018-02-16T10:21:53.977Z,96220
2018-02-16T10:24:22.057Z,96227
2018-02-16T10:26:50.157Z,96227
2018-02-16T10:29:18.325Z,96219
2018-02-16T10:31:46.509Z,96227
2018-02-16T10:34:14.624Z,96238
2018-02-16T10:36:42.735Z,96242
2018-02-16T10:39:11.423Z,96233
2018-02-16T10:41:40.306Z,96233
2018-02-16T10:44:08.388Z,96228
2018-02-16T10:46:36.497Z,96230
2018-02-16T10:49:04.612Z,96233
2018-02-16T10:51:32.728Z,96235
2018-02-16T10:54:00.836Z,96246
2018-02-16T10:56:28.947Z,96237
2018-02-16T10:58:57.049Z,96241
2018-02-16T11:01:25.162Z,96238
2018-02-16T11:03:58.807Z,96239
2018-02-16T11:06:32.456Z,96239
2018-02-16T11:09:05.995Z,96244
2018-02-16T11:11:34.077Z,96246
2018-02-16T11:14:02.182Z,96245
2018-02-16T11:16:30.294Z,96242
2018-02-16T11:18:58.384Z,96247
2018-02-16T11:21:26.516Z,96238
2018-02-16T11:23:54.608Z,96245
2018-02-16T11:26:22.735Z,96242
2018-02-16T11:28:50.828Z,96242
2018-02-16T11:31:18.949Z,96243
2018-02-16T11:33:47.336Z,96247
2018-02-16T11:36:15.443Z,96252
2018-02-16T11:38:43.544Z,96242
2018-02-16T11:41:11.864Z,96252
2018-02-16T11:43:39.964Z,96254
2018-02-16T11:46:08.072Z,96248
2018-02-16T11:48:36.237Z,96242
2018-02-16T11:51:04.329Z,96240
2018-02-16T11:53:32.496Z,96254
2018-02-16T11:56:00.978Z,96253
2018-02-16T11:58:29.107Z,96261
2018-02-16T12:00:57.235Z,96256
2018-02-16T12:03:25.329Z,96260
2018-02-16T12:05:53.809Z,96248
2018-02-16T12:08:21.895Z,96256
2018-02-16T12:10:50.493Z,96248
2018-02-16T12:13:18.619Z,96263
2018-02-16T12:15:46.809Z,96251
2018-02-16T12:18:14.893Z,96249
2018-02-16T12:20:43.058Z,96252
2018-02-16T12:23:11.165Z,96253
2018-02-16T12:25:39.255Z,96254
2018-02-16T12:28:07.373Z,96251
2018-02-16T12:30:35.470Z,96255
2018-02-16T12:33:03.572Z,96251
2018-02-16T12:35:31.971Z,96239
2018-02-16T12:38:00.082Z,96245
2018-02-16T12:40:28.970Z,96248
2018-02-16T12:42:57.097Z,96228
2018-02-16T12:45:25.199Z,96243
2018-02-16T12:47:53.290Z,96233
2018-02-16T12:50:21.396Z,96239
2018-02-16T12:52:49.538Z,96237
2018-02-16T12:55:17.846Z,96240
2018-02-16T12:57:45.926Z,96223
2018-02-16T13:00:14.077Z,96233
2018-02-16T13:02:42.292Z,96232
2018-02-16T13:05:10.458Z,96238
2018-02-16T13:07:38.717Z,96231
2018-02-16T13:10:06.816Z,96238
2018-02-16T13:12:34.910Z,96236
2018-02-16T13:15:03.009Z,96234
2018-02-16T13:17:31.892Z,96239
2018-02-16T13:20:00.740Z,96231
2018-02-16T13:22:28.905Z,96223
2018-02-16T13:24:56.973Z,96229
2018-02-16T13:27:25.072Z,96232
2018-02-16T13:29:53.176Z,96242
2018-02-16T13:32:21.265Z,96234
2018-02-16T13:34:49.387Z,96222
2018-02-16T13:37:17.478Z,96227
2018-02-16T13:39:45.603Z,96217
2018-02-16T13:42:13.707Z,96242
2018-02-16T13:44:41.804Z,96237
2018-02-16T13:47:09.909Z,96237
2018-02-16T13:49:38.122Z,96229
2018-02-16T13:52:06.228Z,96228
2018-02-16T13:54:34.319Z,96228
2018-02-16T13:57:02.436Z,96235
2018-02-16T13:59:30.556Z,96234
2018-02-16T14:01:58.668Z,96232
2018-02-16T14:04:26.766Z,96239
2018-02-16T14:06:55.315Z,96235
2018-02-16T14:09:23.430Z,96237
2018-02-16T14:11:51.512Z,96231
2018-02-16T14:14:19.623Z,96244
2018-02-16T14:16:48.050Z,96238
2018-02-16T14:19:16.163Z,96235
2018-02-16T14:21:44.288Z,96238
2018-02-16T14:24:12.518Z,96235
2018-02-16T14:26:40.632Z,96235
2018-02-16T14:29:08.757Z,96243
2018-02-16T14:31:36.900Z,96232
2018-02-16T14:34:04.988Z,96240
2018-02-16T14:36:33.156Z,96230
2018-02-16T14:39:01.250Z,96227
2018-02-16T14:41:29.395Z,96233
2018-02-16T14:43:58.259Z,96223
2018-02-16T14:46:26.365Z,96228
2018-02-16T14:48:55.236Z,96216
2018-02-16T14:51:23.328Z,96223
2018-02-16T14:53:51.439Z,96217
2018-02-16T14:56:19.575Z,96213
2018-02-16T14:58:47.754Z,96220
2018-02-16T15:01:16.629Z,96221
2018-02-16T15:03:44.733Z,96221
2018-02-16T15:06:12.843Z,96238
2018-02-16T15:08:40.953Z,96232
2018-02-16T15:11:09.135Z,96233
2018-02-16T15:13:37.242Z,96239
2018-02-16T15:16:05.337Z,96241
2018-02-16T15:18:33.426Z,96248
2018-02-16T15:21:01.534Z,96248
2018-02-16T15:23:29.634Z,96257
2018-02-16T15:25:57.739Z,96248
2018-02-16T15:28:25.872Z,96248
2018-02-16T15:30:54.714Z,96248
2018-02-16T15:33:22.816Z,96247
2018-02-16T15:35:50.912Z,96249
2018-02-16T15:38:19.010Z,96255
2018-02-16T15:40:47.205Z,96262
2018-02-16T15:43:16.096Z,96253
2018-02-16T15:45:44.208Z,96253
2018-02-16T15:48:12.310Z,96250
2018-02-16T15:50:40.449Z,96257
2018-02-16T15:53:08.514Z,96249
2018-02-16T15:55:36.599Z,96245
2018-02-16T15:58:04.709Z,96248
2018-02-16T16:00:32.819Z,96243
2018-02-16T16:03:00.946Z,96252
2018-02-16T16:05:29.103Z,96250
2018-02-16T16:07:57.209Z,96250
2018-02-16T16:10:25.382Z,96252
2018-02-16T16:12:53.472Z,96252
2018-02-16T16:15:21.693Z,96248
2018-02-16T16:17:49.820Z,96253
2018-02-16T16:26:51.291Z,96240
2018-02-16T16:29:19.563Z,96249
2018-02-16T16:31:47.776Z,96248
2018-02-16T16:34:16.006Z,96253
2018-02-16T16:36:45.036Z,96248
2018-02-16T16:39:13.900Z,96248
2018-02-16T16:41:41.984Z,96252
2018-02-16T16:44:10.105Z,96248
2018-02-16T16:46:38.288Z,96250
2018-02-16T16:49:06.427Z,96259
2018-02-16T16:51:34.533Z,96262
2018-02-16T16:54:02.640Z,96276
2018-02-16T16:56:30.764Z,96269
2018-02-16T16:58:58.878Z,96271
2018-02-16T17:01:27.014Z,96273
2018-02-16T17:03:55.168Z,96265
2018-02-16T17:06:23.323Z,96266
2018-02-16T17:08:51.456Z,96276
2018-02-16T17:11:19.620Z,96281
2018-02-16T17:13:48.109Z,96270
2018-02-16T17:16:16.247Z,96274
2018-02-16T17:18:48.621Z,96273
2018-02-16T17:21:16.745Z,96273
2018-02-16T17:23:44.945Z,96279
2018-02-16T17:26:13.289Z,96272
2018-02-16T17:28:41.474Z,96271
2018-02-16T17:31:10.305Z,96273
2018-02-16T17:33:38.559Z,96285
2018-02-16T17:36:06.693Z,96277
2018-02-16T17:38:34.853Z,96275
2018-02-16T17:41:03.289Z,96282
2018-02-16T17:43:31.665Z,96281
2018-02-16T17:45:59.833Z,96283
2018-02-16T17:48:28.043Z,96279
2018-02-16T17:50:56.244Z,96280
2018-02-16T17:53:24.369Z,96273
2018-02-16T17:55:52.478Z,96273
2018-02-16T17:58:21.149Z,96281
2018-02-16T18:00:49.382Z,96271
2018-02-16T18:03:17.529Z,96275
2018-02-16T18:05:45.627Z,96279
2018-02-16T18:08:13.794Z,96286
2018-02-16T18:10:42.246Z,96284
2018-02-16T18:13:10.431Z,96283
2018-02-16T18:15:38.570Z,96282
2018-02-16T18:18:06.669Z,96282
2018-02-16T18:20:34.814Z,96285
2018-02-16T18:23:02.954Z,96290
2018-02-16T18:25:31.094Z,96292
2018-02-16T18:27:59.238Z,96295
2018-02-16T18:30:27.390Z,96288
2018-02-16T18:32:55.523Z,96292
2018-02-16T18:35:23.694Z,96293
2018-02-16T18:37:51.863Z,96301
2018-02-16T18:40:19.998Z,96298
2018-02-16T18:42:48.133Z,96293
2018-02-16T18:45:16.256Z,96281
2018-02-16T18:47:44.386Z,96284
2018-02-16T18:50:12.578Z,96264
2018-02-16T18:52:41.462Z,96282
2018-02-16T18:55:09.609Z,96273
2018-02-16T18:57:37.733Z,96278
2018-02-16T19:00:10.167Z,96274
2018-02-16T19:02:38.309Z,96272
2018-02-16T19:05:06.481Z,96272
2018-02-16T19:07:34.629Z,96278
2018-02-16T19:10:02.767Z,96280
2018-02-16T19:12:30.873Z,96269
2018-02-16T19:14:59.009Z,96261
2018-02-16T19:17:28.085Z,96271
2018-02-16T19:19:56.321Z,96251
2018-02-16T19:22:24.697Z,96240
2018-02-16T19:24:52.904Z,96246
2018-02-16T19:27:25.580Z,96252
2018-02-16T19:29:53.710Z,96248
2018-02-16T19:32:21.836Z,96248
2018-02-16T19:34:49.947Z,96253
2018-02-16T19:37:19.814Z,96248
2018-02-16T19:39:48.492Z,96250
2018-02-16T19:42:16.619Z,96254
2018-02-16T19:44:45.532Z,96241
2018-02-16T19:47:14.225Z,96229
2018-02-16T19:49:42.732Z,96232
2018-02-16T19:52:11.895Z,96235
2018-02-16T19:54:40.669Z,96241
2018-02-16T19:57:08.865Z,96240
2018-02-16T19:59:36.995Z,96229
2018-02-16T20:02:05.333Z,96238
2018-02-16T20:04:33.526Z,96221
2018-02-16T20:07:01.813Z,96228
2018-02-16T20:09:30.048Z,96238
2018-02-16T20:12:06.555Z,96237
2018-02-16T20:14:34.812Z,96234
2018-02-16T20:17:03.121Z,96221
2018-02-16T20:19:31.348Z,96219
2018-02-16T20:21:59.497Z,96230
2018-02-16T20:24:27.657Z,96227
2018-02-16T20:26:55.796Z,96218
2018-02-16T20:29:23.948Z,96223
2018-02-16T20:31:52.071Z,96213
2018-02-16T20:34:21.051Z,96200
2018-02-16T20:36:49.653Z,96211
2018-02-16T20:39:19.548Z,96213
2018-02-16T20:41:47.731Z,96208
2018-02-16T20:44:16.573Z,96200
2018-02-16T20:46:44.695Z,96205
2018-02-16T20:49:12.847Z,96207
2018-02-16T20:51:41.026Z,96207
2018-02-16T20:54:10.494Z,96202
2018-02-16T20:56:38.648Z,96197
2018-02-16T20:59:06.820Z,96197
2018-02-16T21:01:35.247Z,96202
2018-02-16T21:04:03.938Z,96193
2018-02-16T21:06:32.050Z,96199
2018-02-16T21:09:00.224Z,96198
2018-02-16T21:11:28.367Z,96188
2018-02-16T21:13:56.514Z,96183
2018-02-16T21:16:26.430Z,96187
2018-02-16T21:18:54.644Z,96185
2018-02-16T21:21:23.682Z,96184
2018-02-16T21:23:56.868Z,96183
2018-02-16T21:26:37.293Z,96183
2018-02-16T21:29:05.438Z,96179
2018-02-16T21:31:34.142Z,96179
2018-02-16T21:34:02.293Z,96184
2018-02-16T21:36:30.447Z,96186
2018-02-16T21:38:58.576Z,96181
2018-02-16T21:41:31.549Z,96174
2018-02-16T21:44:03.595Z,96185
2018-02-16T21:46:32.415Z,96183
2018-02-16T21:49:04.872Z,96175
2018-02-16T21:51:33.012Z,96173
2018-02-16T21:54:01.289Z,96169
2018-02-16T21:56:29.412Z,96176
2018-02-16T21:58:57.553Z,96178
2018-02-16T22:14:16.240Z,96173
2018-02-16T22:16:48.304Z,96158
2018-02-16T22:19:17.208Z,96162
2018-02-16T22:21:46.138Z,96166
2018-02-16T22:24:14.258Z,96150
2018-02-16T22:26:42.384Z,96155
2018-02-16T22:29:10.606Z,96148
2018-02-16T22:31:38.864Z,96152
2018-02-16T22:34:07.107Z,96139
2018-02-16T22:36:35.228Z,96140
2018-02-16T22:39:03.350Z,96140
2018-02-16T22:41:31.503Z,96131
2018-02-16T22:43:59.640Z,96123
2018-02-16T22:46:27.856Z,96125
2018-02-16T22:48:56.035Z,96128
2018-02-16T22:51:24.167Z,96135
2018-02-16T22:53:53.868Z,96133
2018-02-16T22:56:27.892Z,96132
2018-02-16T22:58:56.049Z,96127
2018-02-16T23:01:24.173Z,96130
2018-02-16T23:03:52.369Z,96128
2018-02-16T23:06:20.579Z,96132
2018-02-16T23:08:48.767Z,96121
2018-02-16T23:11:16.924Z,96125
2018-02-16T23:13:45.106Z,96136
2018-02-16T23:29:15.205Z,96127
2018-02-16T23:34:28.709Z,96110
2018-02-16T23:36:56.978Z,96104
2018-02-16T23:39:25.220Z,96112
2018-02-16T23:41:57.323Z,96118
2018-02-16T23:44:25.560Z,96113
2018-02-16T23:46:53.785Z,96119
2018-02-16T23:49:22.068Z,96114
2018-02-16T23:51:50.272Z,96123
2018-02-16T23:54:18.549Z,96111
2018-02-16T23:56:46.783Z,96112
2018-02-16T23:59:14.983Z,96116
